Impacts METAR Board
IDs:

KLGA - New York/La Guardia, NY, US

Updated at: 0300 UTC 23 May 2018
Potential Impact None Slight Moderate High
Time 22/15Z 22/16Z 22/17Z 22/18Z 22/19Z 22/20Z 22/21Z 22/22Z 22/23Z 23/00Z 23/01Z 23/02Z 23/03Z
Temp66 66 65 65 63 60 58 58 57 57 57 58 58
Dewpt54 51 51 49 52 48 50 51 53 54 53 54 55
Altim30.15 30.14 30.12 30.10 30.11 30.07 30.05 30.04 30.03 30.00 30.00 30.00 29.98
VIS10 10 10 10 10 7 7 10 6 10 10 8 8
CIG80 75 70 65 55 80 19 13 8 6 6 6 7
CoverOVCOVCOVCOVCOVCOVCOVCOVCOVCOVCOVCOVCOVC
FltCatVFRVFRVFRVFRVFRVFRMVFRMVFRIFRIFRIFRIFRIFR
WX-------RARA-RA-RA--BR--------
WDir170170170170160040505050404080
WSpd7 6 13 9 6 0 5 6 4 6 5 4 3
WGst-- -- -- -- -- -- -- -- -- -- -- -- --
Raw hourly METARs
KLGA 221451Z 17007KT 10SM FEW040 BKN080 OVC100 19/12 A3015 RMK AO2 RAE51 SLP208 P0000 60000 T01890122 58004
KLGA 221551Z 17006KT 10SM OVC075 19/11 A3014 RMK AO2 SLP206 T01890106
KLGA 221651Z 17013KT 10SM OVC070 18/11 A3012 RMK AO2 SLP199 T01830106
KLGA 221751Z 17009KT 10SM -RA OVC065 18/09 A3010 RMK AO2 RAB48 SLP194 P0000 60000 T01830094 10211 20178 58015
KLGA 221851Z 16006KT 10SM RA OVC055 17/11 A3011 RMK AO2 SLP195 P0002 T01720111
KLGA 221951Z 00000KT 7SM -RA SCT060 BKN080 OVC100 16/09 A3007 RMK AO2 SLP184 P0010 T01560089
KLGA 222051Z 04005KT 7SM -RA BKN019 OVC047 14/10 A3005 RMK AO2 SLP175 P0008 60020 T01440100 58018
KLGA 222151Z 05006KT 10SM OVC013 14/11 A3004 RMK AO2 RAE40 SLP171 P0001 T01440106
KLGA 222251Z 05004KT 6SM BR OVC008 14/12 A3003 RMK AO2 RAB28E43 SLP168 P0000 T01390117 $
KLGA 230000Z 05006KT 10SM OVC006 14/12 A3000 RMK AO2 T01390122 $
KLGA 230051Z 04005KT 10SM OVC006 14/12 A3000 RMK AO2 SLP158 T01390117 $
KLGA 230202Z 04004KT 8SM OVC006 14/12 A3000 RMK AO2 T01440122 $
KLGA 230251Z 08003KT 8SM OVC007 14/13 A2998 RMK AO2 SLP152 T01440128 58009 $



Page loaded:  03:16 UTC  |   08:16 PM Pacific  |   09:16 PM Mountain  |   10:16 PM Central  |   11:16 PM Eastern

 

ADVISORIES

FORECASTS

FORECASTS

OBSERVATIONS

USER TOOLS

ABOUT US